Time;durP1;ratioP1;P1;durP2;ratioP2;P2;SDS_P1;SDS_P2;PMS_P1;PMS_P2;Temp;Humidity;BMP_temperature;BMP_pressure;BME280_temperature;BME280_humidity;BME280_pressure;Samples;Min_cycle;Max_cycle;Signal;HPM_P1;HPM_P2
2024/01/26 00:01:48;;;;;;;2.05;1.85;;;;;;;;;;5067436;28;20040;-75
2024/01/26 00:04:13;;;;;;;1.63;1.52;;;;;;;;;;5062860;28;20047;-75
2024/01/26 00:06:39;;;;;;;2.25;2.05;;;;;;;;;;5065877;28;20037;-74
2024/01/26 00:09:11;;;;;;;2.03;1.90;;;;;;;;;;5055292;28;20088;-74
2024/01/26 00:11:38;;;;;;;2.03;1.92;;;;;;;;;;5062371;28;20086;-76
2024/01/26 00:14:04;;;;;;;1.80;1.70;;;;;;;;;;5062276;28;20033;-76
2024/01/26 00:16:29;;;;;;;2.78;2.33;;;;;;;;;;5062108;28;20033;-74
2024/01/26 00:18:55;;;;;;;2.40;2.05;;;;;;;;;;5069643;28;20527;-74
2024/01/26 00:21:20;;;;;;;3.30;2.20;;;;;;;;;;5061913;28;20035;-76
2024/01/26 00:23:45;;;;;;;2.13;1.92;;;;;;;;;;5052365;28;20037;-76
2024/01/26 00:26:14;;;;;;;2.40;2.20;;;;;;;;;;5050739;28;20297;-74
2024/01/26 00:28:40;;;;;;;2.35;2.15;;;;;;;;;;5060218;28;20479;-75
2024/01/26 00:31:06;;;;;;;2.45;2.03;;;;;;;;;;5065647;28;20025;-75
2024/01/26 00:33:32;;;;;;;2.25;2.05;;;;;;;;;;5058921;28;20501;-74
2024/01/26 00:35:57;;;;;;;2.50;2.30;;;;;;;;;;5057554;28;20104;-74
2024/01/26 00:38:23;;;;;;;2.13;1.92;;;;;;;;;;5053069;28;20060;-74
2024/01/26 00:40:48;;;;;;;2.45;2.17;;;;;;;;;;5069022;28;20036;-74
2024/01/26 00:43:14;;;;;;;2.60;2.35;;;;;;;;;;5056604;28;20036;-76
2024/01/26 00:45:39;;;;;;;3.35;2.50;;;;;;;;;;5062377;28;20052;-74
2024/01/26 00:48:05;;;;;;;2.60;2.40;;;;;;;;;;5058526;28;20028;-75
2024/01/26 00:50:30;;;;;;;2.63;2.35;;;;;;;;;;5061910;28;20766;-77
2024/01/26 00:52:55;;;;;;;2.58;2.38;;;;;;;;;;5053664;28;20436;-75
2024/01/26 00:55:21;;;;;;;2.70;2.50;;;;;;;;;;5051524;28;20405;-75
2024/01/26 00:57:47;;;;;;;3.17;2.63;;;;;;;;;;5060649;28;20552;-76
2024/01/26 01:00:13;;;;;;;3.42;3.13;;;;;;;;;;5062043;28;20123;-76
2024/01/26 01:02:38;;;;;;;3.38;2.88;;;;;;;;;;5062624;28;20105;-75
2024/01/26 01:05:06;;;;;;;2.85;2.55;;;;;;;;;;5058622;28;20032;-75
2024/01/26 01:07:31;;;;;;;3.30;3.00;;;;;;;;;;5063239;28;20024;-75
2024/01/26 01:09:56;;;;;;;6.22;3.70;;;;;;;;;;5054870;28;20055;-75
2024/01/26 01:12:22;;;;;;;3.63;3.30;;;;;;;;;;5058164;28;20045;-76
2024/01/26 01:14:47;;;;;;;3.63;3.28;;;;;;;;;;5053738;28;20033;-76
2024/01/26 01:17:12;;;;;;;6.15;4.13;;;;;;;;;;5069139;28;20024;-76
2024/01/26 01:19:38;;;;;;;3.90;3.60;;;;;;;;;;5053543;28;20710;-76
2024/01/26 01:22:03;;;;;;;4.20;3.55;;;;;;;;;;5061923;28;20070;-76
2024/01/26 01:24:29;;;;;;;4.78;3.28;;;;;;;;;;5061035;28;20044;-76
2024/01/26 01:26:54;;;;;;;5.15;3.90;;;;;;;;;;5059963;28;20540;-76
2024/01/26 01:29:19;;;;;;;4.85;3.85;;;;;;;;;;5057292;28;20032;-76
2024/01/26 01:31:45;;;;;;;5.35;3.55;;;;;;;;;;5062932;28;20029;-76
2024/01/26 01:34:10;;;;;;;6.80;4.15;;;;;;;;;;5050186;28;20037;-76
2024/01/26 01:36:35;;;;;;;5.15;4.05;;;;;;;;;;5058889;28;20040;-76
2024/01/26 01:39:01;;;;;;;2.70;2.50;;;;;;;;;;5051925;28;20071;-76
2024/01/26 01:41:26;;;;;;;3.85;3.45;;;;;;;;;;5051163;28;20043;-76
2024/01/26 01:43:56;;;;;;;5.80;3.90;;;;;;;;;;5054419;28;20419;-76
2024/01/26 01:46:21;;;;;;;4.40;3.63;;;;;;;;;;5062889;28;20112;-76
2024/01/26 01:48:48;;;;;;;3.30;3.00;;;;;;;;;;5051313;28;20124;-76
2024/01/26 01:51:14;;;;;;;5.00;3.78;;;;;;;;;;5051594;28;20068;-76
2024/01/26 01:53:41;;;;;;;4.97;3.70;;;;;;;;;;5053570;28;20025;-76
2024/01/26 01:56:10;;;;;;;4.80;3.67;;;;;;;;;;5056948;28;20075;-75
2024/01/26 01:58:37;;;;;;;4.00;2.75;;;;;;;;;;5051628;28;20148;-76
2024/01/26 02:01:04;;;;;;;3.28;2.97;;;;;;;;;;5048386;28;20529;-76
2024/01/26 02:03:29;;;;;;;3.58;3.08;;;;;;;;;;5050575;28;23890;-76
2024/01/26 02:05:55;;;;;;;3.05;2.75;;;;;;;;;;5066512;28;20040;-76
2024/01/26 02:08:20;;;;;;;3.53;2.90;;;;;;;;;;5052544;28;20032;-75
2024/01/26 02:10:45;;;;;;;5.72;3.20;;;;;;;;;;5049050;28;20563;-75
2024/01/26 02:13:10;;;;;;;2.90;2.67;;;;;;;;;;5055063;28;20068;-76
2024/01/26 02:15:36;;;;;;;3.35;3.05;;;;;;;;;;5057034;28;20091;-76
2024/01/26 02:18:01;;;;;;;3.20;2.90;;;;;;;;;;5049696;28;20044;-76
2024/01/26 02:20:26;;;;;;;3.38;2.60;;;;;;;;;;5051249;28;20033;-76
2024/01/26 02:22:52;;;;;;;3.25;2.95;;;;;;;;;;5052413;28;20102;-76
2024/01/26 02:25:17;;;;;;;2.58;2.38;;;;;;;;;;5048000;28;20853;-75
2024/01/26 02:27:42;;;;;;;2.70;2.50;;;;;;;;;;5054235;28;20109;-76
2024/01/26 02:30:08;;;;;;;2.33;2.15;;;;;;;;;;5063061;28;20036;-76
2024/01/26 02:32:33;;;;;;;2.10;2.00;;;;;;;;;;5057362;28;20124;-76
2024/01/26 02:34:58;;;;;;;2.20;2.00;;;;;;;;;;5056771;28;20036;-76
2024/01/26 02:37:24;;;;;;;1.92;1.83;;;;;;;;;;5062208;28;20037;-77
2024/01/26 02:39:49;;;;;;;2.08;1.95;;;;;;;;;;5055814;28;20718;-76
2024/01/26 02:42:14;;;;;;;2.00;1.65;;;;;;;;;;5054003;28;20087;-76
2024/01/26 02:44:39;;;;;;;1.67;1.55;;;;;;;;;;5055381;28;20051;-76
2024/01/26 02:47:05;;;;;;;2.45;1.83;;;;;;;;;;5062105;28;20489;-76
2024/01/26 02:49:31;;;;;;;1.70;1.60;;;;;;;;;;5057844;28;20528;-76
2024/01/26 02:51:57;;;;;;;1.70;1.60;;;;;;;;;;5060710;28;20072;-76
2024/01/26 02:54:22;;;;;;;1.50;1.40;;;;;;;;;;5061493;28;27233;-76
2024/01/26 02:56:47;;;;;;;1.30;1.30;;;;;;;;;;5061117;28;20159;-76
2024/01/26 02:59:13;;;;;;;2.70;1.58;;;;;;;;;;5065573;28;20025;-76
2024/01/26 03:01:38;;;;;;;1.73;1.63;;;;;;;;;;5061931;28;20056;-76
2024/01/26 03:04:03;;;;;;;1.58;1.48;;;;;;;;;;5066387;28;20170;-76
2024/01/26 03:06:29;;;;;;;1.80;1.70;;;;;;;;;;5058130;28;20064;-77
2024/01/26 03:08:54;;;;;;;1.63;1.52;;;;;;;;;;5062237;28;20622;-76
2024/01/26 03:11:19;;;;;;;1.70;1.60;;;;;;;;;;5068609;28;20047;-76
2024/01/26 03:13:44;;;;;;;2.03;1.45;;;;;;;;;;5066132;28;20401;-76
2024/01/26 03:16:10;;;;;;;2.10;1.90;;;;;;;;;;5062095;28;20037;-76
2024/01/26 03:18:36;;;;;;;1.70;1.60;;;;;;;;;;5061379;28;20053;-76
2024/01/26 03:21:01;;;;;;;1.58;1.48;;;;;;;;;;5068054;28;20032;-77
2024/01/26 03:23:27;;;;;;;3.50;1.70;;;;;;;;;;5062863;28;20145;-76
2024/01/26 03:25:52;;;;;;;2.63;1.52;;;;;;;;;;5056040;28;20056;-75
2024/01/26 03:28:17;;;;;;;1.55;1.45;;;;;;;;;;5056362;28;20029;-75
2024/01/26 03:30:43;;;;;;;1.52;1.42;;;;;;;;;;5063365;28;20454;-77
2024/01/26 03:33:09;;;;;;;1.75;1.65;;;;;;;;;;5062352;28;20029;-76
2024/01/26 03:35:34;;;;;;;1.88;1.67;;;;;;;;;;5055836;28;20450;-77
2024/01/26 03:38:01;;;;;;;1.35;1.33;;;;;;;;;;5070649;28;20473;-76
2024/01/26 03:40:27;;;;;;;2.08;1.50;;;;;;;;;;5058269;28;20108;-75
2024/01/26 03:42:52;;;;;;;1.58;1.48;;;;;;;;;;5063637;28;20339;-75
2024/01/26 03:45:18;;;;;;;1.42;1.33;;;;;;;;;;5064308;28;20067;-75
2024/01/26 03:47:43;;;;;;;1.52;1.42;;;;;;;;;;5064641;28;20041;-77
2024/01/26 03:50:09;;;;;;;4.68;1.65;;;;;;;;;;5059953;28;20036;-77
2024/01/26 03:52:34;;;;;;;1.95;1.42;;;;;;;;;;5064536;28;20580;-76
2024/01/26 03:55:01;;;;;;;1.50;1.30;;;;;;;;;;5058167;28;20042;-75
2024/01/26 03:57:26;;;;;;;1.92;1.73;;;;;;;;;;5061503;28;20037;-76
2024/01/26 03:59:51;;;;;;;2.35;1.60;;;;;;;;;;5059573;28;20075;-76
2024/01/26 04:02:17;;;;;;;1.60;1.50;;;;;;;;;;5070077;28;20037;-76
2024/01/26 04:04:43;;;;;;;2.28;1.48;;;;;;;;;;5066184;28;20036;-76
2024/01/26 04:07:10;;;;;;;1.75;1.65;;;;;;;;;;5064688;28;20489;-77
2024/01/26 04:09:35;;;;;;;1.48;1.38;;;;;;;;;;5061837;28;20123;-76
2024/01/26 04:12:01;;;;;;;2.53;1.80;;;;;;;;;;5066008;28;20409;-76
2024/01/26 04:14:26;;;;;;;1.48;1.35;;;;;;;;;;5056307;28;20527;-76
2024/01/26 04:16:51;;;;;;;1.60;1.50;;;;;;;;;;5064182;28;20039;-76
2024/01/26 04:19:17;;;;;;;1.73;1.63;;;;;;;;;;5064727;28;20469;-77
2024/01/26 04:21:42;;;;;;;2.10;1.75;;;;;;;;;;5056331;28;20073;-77
2024/01/26 04:24:08;;;;;;;2.55;1.70;;;;;;;;;;5064679;28;20111;-77
2024/01/26 04:26:33;;;;;;;2.88;1.80;;;;;;;;;;5066273;28;20519;-77
2024/01/26 04:28:58;;;;;;;1.45;1.35;;;;;;;;;;5069163;28;20045;-77
2024/01/26 04:31:24;;;;;;;1.30;1.30;;;;;;;;;;5056269;28;20501;-75
2024/01/26 04:33:50;;;;;;;2.22;1.63;;;;;;;;;;5059148;28;20068;-75
2024/01/26 04:36:16;;;;;;;1.50;1.40;;;;;;;;;;5064288;28;20052;-75
2024/01/26 04:38:41;;;;;;;1.90;1.73;;;;;;;;;;5065196;28;20382;-76
2024/01/26 04:41:07;;;;;;;5.28;1.98;;;;;;;;;;5060160;28;20116;-76
2024/01/26 04:43:32;;;;;;;1.38;1.27;;;;;;;;;;5057887;28;20084;-75
2024/01/26 04:45:58;;;;;;;1.42;1.33;;;;;;;;;;5062874;28;20520;-75
2024/01/26 04:48:23;;;;;;;1.73;1.63;;;;;;;;;;5057038;28;20051;-75
2024/01/26 04:50:48;;;;;;;1.77;1.52;;;;;;;;;;5060105;28;20033;-75
2024/01/26 04:53:15;;;;;;;1.58;1.48;;;;;;;;;;5062489;28;20097;-75
2024/01/26 04:55:40;;;;;;;1.58;1.48;;;;;;;;;;5056650;28;20127;-75
2024/01/26 04:58:06;;;;;;;7.28;1.90;;;;;;;;;;5056459;28;20123;-77
2024/01/26 05:00:31;;;;;;;1.80;1.70;;;;;;;;;;5059802;28;20036;-75
2024/01/26 05:02:56;;;;;;;1.50;1.40;;;;;;;;;;5060742;28;20051;-76
2024/01/26 05:05:21;;;;;;;1.42;1.35;;;;;;;;;;5065950;28;20040;-76
2024/01/26 05:07:47;;;;;;;2.13;1.52;;;;;;;;;;5063903;28;20041;-76
2024/01/26 05:10:12;;;;;;;1.52;1.42;;;;;;;;;;5057983;28;20562;-76
2024/01/26 05:12:38;;;;;;;1.50;1.40;;;;;;;;;;5064047;28;20062;-78
2024/01/26 05:15:05;;;;;;;4.55;1.60;;;;;;;;;;5065852;28;20032;-76
2024/01/26 05:17:31;;;;;;;1.88;1.77;;;;;;;;;;5047309;28;20497;-76
2024/01/26 05:19:56;;;;;;;1.75;1.65;;;;;;;;;;5055694;28;20028;-76
2024/01/26 05:22:22;;;;;;;1.42;1.35;;;;;;;;;;5064680;28;20038;-76
2024/01/26 05:24:47;;;;;;;9.43;1.58;;;;;;;;;;5059119;28;20029;-76
2024/01/26 05:27:12;;;;;;;1.73;1.40;;;;;;;;;;5051358;28;20029;-76
2024/01/26 05:29:38;;;;;;;1.85;1.40;;;;;;;;;;5066905;28;20052;-76
2024/01/26 05:32:04;;;;;;;2.10;1.40;;;;;;;;;;5068441;28;20443;-76
2024/01/26 05:34:29;;;;;;;1.52;1.20;;;;;;;;;;5061492;28;20111;-76
2024/01/26 05:36:55;;;;;;;1.10;1.10;;;;;;;;;;5057777;28;20111;-76
2024/01/26 05:39:20;;;;;;;2.38;1.10;;;;;;;;;;5058100;28;20116;-76
2024/01/26 05:41:46;;;;;;;1.95;1.50;;;;;;;;;;5057878;28;20106;-77
2024/01/26 05:44:12;;;;;;;5.60;1.52;;;;;;;;;;5059633;28;20036;-76
2024/01/26 05:46:37;;;;;;;1.35;1.25;;;;;;;;;;5068671;28;20058;-76
2024/01/26 05:49:02;;;;;;;1.67;1.10;;;;;;;;;;5064954;28;20036;-76
2024/01/26 05:51:28;;;;;;;1.00;1.00;;;;;;;;;;5057470;28;20044;-76
2024/01/26 05:53:54;;;;;;;6.70;1.17;;;;;;;;;;5060809;28;20044;-74
2024/01/26 05:56:19;;;;;;;1.30;1.00;;;;;;;;;;5062386;28;20128;-74
2024/01/26 05:58:45;;;;;;;1.23;1.08;;;;;;;;;;5056626;28;20064;-74
2024/01/26 06:01:11;;;;;;;2.35;0.93;;;;;;;;;;5051381;28;20076;-76
2024/01/26 06:03:36;;;;;;;1.13;1.00;;;;;;;;;;5058716;28;20033;-74
2024/01/26 06:06:03;;;;;;;1.58;1.00;;;;;;;;;;5058096;28;20048;-74
2024/01/26 06:08:28;;;;;;;0.80;0.80;;;;;;;;;;5058974;28;20037;-74
2024/01/26 06:10:55;;;;;;;3.13;1.20;;;;;;;;;;5063879;28;20044;-74
2024/01/26 06:13:21;;;;;;;3.28;1.30;;;;;;;;;;5066099;28;20115;-75
2024/01/26 06:15:46;;;;;;;3.28;1.20;;;;;;;;;;5058727;28;20124;-75
2024/01/26 06:18:11;;;;;;;0.98;0.93;;;;;;;;;;5062716;28;20115;-75
2024/01/26 06:20:37;;;;;;;2.50;0.90;;;;;;;;;;5069402;28;20056;-75
2024/01/26 06:23:02;;;;;;;5.65;1.02;;;;;;;;;;5063988;28;20094;-75
2024/01/26 06:25:28;;;;;;;0.50;0.50;;;;;;;;;;5064100;28;20040;-75
2024/01/26 06:27:53;;;;;;;1.13;1.00;;;;;;;;;;5067863;28;20353;-75
2024/01/26 06:30:18;;;;;;;1.38;1.00;;;;;;;;;;5068532;28;20443;-75
2024/01/26 06:32:44;;;;;;;1.35;0.98;;;;;;;;;;5058679;28;20120;-75
2024/01/26 06:35:10;;;;;;;0.90;0.90;;;;;;;;;;5054987;28;20399;-75
2024/01/26 06:37:35;;;;;;;3.60;1.55;;;;;;;;;;5053555;28;20036;-75
2024/01/26 06:40:01;;;;;;;0.77;0.77;;;;;;;;;;5048255;28;20504;-75
2024/01/26 06:42:26;;;;;;;0.82;0.82;;;;;;;;;;5063513;28;20036;-75
2024/01/26 06:44:54;;;;;;;1.05;1.00;;;;;;;;;;5057407;28;20082;-75
2024/01/26 06:47:20;;;;;;;1.30;0.98;;;;;;;;;;5059140;28;20131;-75
2024/01/26 06:49:45;;;;;;;1.05;0.80;;;;;;;;;;5055248;28;20112;-75
2024/01/26 06:52:10;;;;;;;0.82;0.80;;;;;;;;;;5059344;28;20040;-75
2024/01/26 06:54:38;;;;;;;2.55;0.95;;;;;;;;;;5062163;28;20535;-75
2024/01/26 06:57:04;;;;;;;1.20;0.68;;;;;;;;;;5067996;28;20532;-75
2024/01/26 06:59:29;;;;;;;2.70;1.45;;;;;;;;;;5054971;28;20079;-75
2024/01/26 07:01:55;;;;;;;1.00;1.00;;;;;;;;;;5062175;28;20056;-75
2024/01/26 07:04:20;;;;;;;1.20;1.20;;;;;;;;;;5054493;28;20044;-75
2024/01/26 07:06:45;;;;;;;0.60;0.60;;;;;;;;;;5057886;28;20047;-75
2024/01/26 07:09:11;;;;;;;0.57;0.57;;;;;;;;;;5064260;28;20033;-75
2024/01/26 07:11:38;;;;;;;1.17;1.08;;;;;;;;;;5045971;28;20437;-75
2024/01/26 07:14:04;;;;;;;0.75;0.75;;;;;;;;;;5065302;28;20029;-75
2024/01/26 07:16:29;;;;;;;1.70;0.70;;;;;;;;;;5058931;28;20105;-75
2024/01/26 07:18:54;;;;;;;0.88;0.68;;;;;;;;;;5064105;28;20544;-75
2024/01/26 07:21:20;;;;;;;0.75;0.75;;;;;;;;;;5068639;28;20039;-75
2024/01/26 07:23:46;;;;;;;1.95;0.70;;;;;;;;;;5065632;28;20670;-75
2024/01/26 07:26:17;;;;;;;0.80;0.80;;;;;;;;;;5067942;28;20047;-75
2024/01/26 07:28:43;;;;;;;0.63;0.63;;;;;;;;;;5064102;28;20060;-75
2024/01/26 07:31:08;;;;;;;0.65;0.65;;;;;;;;;;5060241;28;20662;-75
2024/01/26 07:33:33;;;;;;;0.63;0.63;;;;;;;;;;5065944;28;20051;-75
2024/01/26 07:35:58;;;;;;;0.52;0.52;;;;;;;;;;5060560;28;20093;-75
2024/01/26 07:38:24;;;;;;;0.73;0.73;;;;;;;;;;5069182;28;20538;-75
2024/01/26 07:40:49;;;;;;;0.55;0.55;;;;;;;;;;5064297;28;20041;-75
2024/01/26 07:43:15;;;;;;;0.80;0.80;;;;;;;;;;5064600;28;20037;-75
2024/01/26 07:45:40;;;;;;;0.90;0.80;;;;;;;;;;5058943;28;20041;-75
2024/01/26 07:48:06;;;;;;;3.70;2.05;;;;;;;;;;5061377;28;20029;-75
2024/01/26 07:50:31;;;;;;;0.57;0.57;;;;;;;;;;5065881;28;20086;-75
2024/01/26 07:52:57;;;;;;;0.80;0.80;;;;;;;;;;5062410;28;20043;-75
2024/01/26 07:55:22;;;;;;;0.52;0.52;;;;;;;;;;5058836;28;20148;-75
2024/01/26 07:57:48;;;;;;;2.47;0.70;;;;;;;;;;5060875;28;20046;-75
2024/01/26 08:00:13;;;;;;;0.50;0.50;;;;;;;;;;5061172;28;20059;-75
2024/01/26 08:02:39;;;;;;;0.52;0.52;;;;;;;;;;5063575;28;20029;-75
2024/01/26 08:05:04;;;;;;;0.50;0.50;;;;;;;;;;5051899;28;20032;-75
2024/01/26 08:07:30;;;;;;;1.27;0.60;;;;;;;;;;5058157;28;20423;-75
2024/01/26 08:09:55;;;;;;;0.70;0.70;;;;;;;;;;5059613;28;20094;-75
2024/01/26 08:12:21;;;;;;;0.70;0.70;;;;;;;;;;5053694;28;20490;-75
2024/01/26 08:14:46;;;;;;;0.50;0.50;;;;;;;;;;5043633;28;20147;-75
2024/01/26 08:17:11;;;;;;;1.70;0.65;;;;;;;;;;5052735;28;20039;-75
2024/01/26 08:19:37;;;;;;;1.27;0.55;;;;;;;;;;5039358;28;20040;-75
2024/01/26 08:22:03;;;;;;;0.50;0.50;;;;;;;;;;5048415;28;20032;-75
2024/01/26 08:24:29;;;;;;;0.60;0.60;;;;;;;;;;5061358;28;20377;-75
2024/01/26 08:26:54;;;;;;;0.60;0.60;;;;;;;;;;5070129;28;20063;-75
2024/01/26 08:29:21;;;;;;;1.27;0.55;;;;;;;;;;5064819;28;20059;-75
2024/01/26 08:31:47;;;;;;;0.55;0.55;;;;;;;;;;5061052;28;20032;-75
2024/01/26 08:34:13;;;;;;;0.45;0.45;;;;;;;;;;5060728;28;20421;-75
2024/01/26 08:36:38;;;;;;;0.43;0.43;;;;;;;;;;5062983;28;20792;-76
2024/01/26 08:39:04;;;;;;;2.08;0.73;;;;;;;;;;5064829;28;20028;-75
2024/01/26 08:41:29;;;;;;;0.50;0.50;;;;;;;;;;5064618;28;20078;-75
2024/01/26 08:43:54;;;;;;;0.82;0.40;;;;;;;;;;5059665;28;20409;-75
2024/01/26 08:46:20;;;;;;;0.60;0.60;;;;;;;;;;5055493;28;20111;-75
2024/01/26 08:48:46;;;;;;;0.60;0.60;;;;;;;;;;5064406;28;20033;-75
2024/01/26 08:51:11;;;;;;;0.77;0.50;;;;;;;;;;5065769;28;20032;-75
2024/01/26 08:53:36;;;;;;;0.30;0.30;;;;;;;;;;5058733;28;20064;-75
2024/01/26 08:56:05;;;;;;;0.55;0.55;;;;;;;;;;5062802;28;20477;-75
2024/01/26 08:58:30;;;;;;;1.00;0.90;;;;;;;;;;5061412;28;20039;-75
2024/01/26 09:00:56;;;;;;;2.40;0.60;;;;;;;;;;5059638;28;20127;-75
2024/01/26 09:03:21;;;;;;;0.57;0.57;;;;;;;;;;5052148;28;20040;-75
2024/01/26 09:05:46;;;;;;;0.73;0.70;;;;;;;;;;5059823;28;20082;-75
2024/01/26 09:08:12;;;;;;;0.43;0.43;;;;;;;;;;5065048;28;20162;-75
2024/01/26 09:10:37;;;;;;;0.55;0.55;;;;;;;;;;5064160;28;20087;-75
2024/01/26 09:13:03;;;;;;;0.50;0.50;;;;;;;;;;5063951;28;20044;-75
2024/01/26 09:15:28;;;;;;;0.43;0.43;;;;;;;;;;5063599;28;20544;-75
2024/01/26 09:17:53;;;;;;;0.45;0.45;;;;;;;;;;5066012;28;20021;-75
2024/01/26 09:20:19;;;;;;;0.70;0.70;;;;;;;;;;5064160;28;20036;-75
2024/01/26 09:22:44;;;;;;;0.50;0.50;;;;;;;;;;5067128;28;20047;-75
2024/01/26 09:25:09;;;;;;;0.60;0.60;;;;;;;;;;5052664;28;20032;-75
2024/01/26 09:27:34;;;;;;;0.50;0.50;;;;;;;;;;5067378;28;20404;-75
2024/01/26 09:30:01;;;;;;;0.50;0.50;;;;;;;;;;5062320;28;20431;-75
2024/01/26 09:32:27;;;;;;;0.65;0.65;;;;;;;;;;5065235;28;20052;-75
2024/01/26 09:34:52;;;;;;;0.50;0.50;;;;;;;;;;5061754;28;20514;-75
2024/01/26 09:37:17;;;;;;;0.50;0.50;;;;;;;;;;5064540;28;20041;-75
2024/01/26 09:39:43;;;;;;;2.15;0.60;;;;;;;;;;5060037;28;20068;-75
2024/01/26 09:42:09;;;;;;;0.70;0.60;;;;;;;;;;5057799;28;20409;-75
2024/01/26 09:44:34;;;;;;;0.55;0.55;;;;;;;;;;5052549;28;20405;-75
2024/01/26 09:47:01;;;;;;;0.63;0.50;;;;;;;;;;5060102;28;20036;-75
2024/01/26 09:49:29;;;;;;;0.93;0.70;;;;;;;;;;5067414;28;20032;-75
2024/01/26 09:51:54;;;;;;;0.60;0.60;;;;;;;;;;5066507;28;20377;-75
2024/01/26 09:54:20;;;;;;;0.63;0.63;;;;;;;;;;5062862;28;20062;-75
2024/01/26 09:56:47;;;;;;;0.70;0.70;;;;;;;;;;5054276;28;20041;-75
2024/01/26 09:59:12;;;;;;;0.50;0.50;;;;;;;;;;5060391;28;20447;-75
2024/01/26 10:01:41;;;;;;;1.48;0.70;;;;;;;;;;5060618;28;20094;-75
2024/01/26 10:04:08;;;;;;;0.50;0.50;;;;;;;;;;5055567;28;20033;-75
2024/01/26 10:06:33;;;;;;;0.50;0.50;;;;;;;;;;5041610;28;20485;-75
2024/01/26 10:08:59;;;;;;;0.57;0.57;;;;;;;;;;5059020;28;20048;-75
2024/01/26 10:11:24;;;;;;;0.60;0.60;;;;;;;;;;5061446;28;20037;-75
2024/01/26 10:13:50;;;;;;;1.23;0.60;;;;;;;;;;5065461;28;20033;-75
2024/01/26 10:16:15;;;;;;;1.17;0.60;;;;;;;;;;5059793;28;20028;-75
2024/01/26 10:18:43;;;;;;;0.50;0.50;;;;;;;;;;5064390;28;20039;-75
2024/01/26 10:21:09;;;;;;;0.57;0.57;;;;;;;;;;5061082;28;20039;-75
2024/01/26 10:23:35;;;;;;;1.23;0.57;;;;;;;;;;5067486;28;20044;-75
2024/01/26 10:26:00;;;;;;;1.00;0.75;;;;;;;;;;5053055;28;20040;-75
2024/01/26 10:28:25;;;;;;;0.70;0.70;;;;;;;;;;5062112;28;20050;-75
2024/01/26 10:30:51;;;;;;;0.60;0.60;;;;;;;;;;5061654;28;20037;-75
2024/01/26 10:33:16;;;;;;;0.70;0.70;;;;;;;;;;5052392;28;20025;-75
2024/01/26 10:35:46;;;;;;;0.60;0.60;;;;;;;;;;5053108;28;20396;-75
2024/01/26 10:38:13;;;;;;;0.52;0.50;;;;;;;;;;5053692;28;20458;-75
2024/01/26 10:40:45;;;;;;;3.83;0.70;;;;;;;;;;5049902;28;20120;-75
2024/01/26 10:43:11;;;;;;;0.65;0.65;;;;;;;;;;5046505;28;20060;-75
2024/01/26 10:45:37;;;;;;;0.50;0.50;;;;;;;;;;5052743;28;20064;-75
2024/01/26 10:48:08;;;;;;;0.60;0.60;;;;;;;;;;5068241;28;20209;-75
2024/01/26 10:50:35;;;;;;;0.70;0.70;;;;;;;;;;5067428;28;20119;-75
2024/01/26 10:53:03;;;;;;;1.35;0.60;;;;;;;;;;5061823;28;20443;-75
2024/01/26 10:55:30;;;;;;;1.98;0.77;;;;;;;;;;5059492;28;20036;-75
2024/01/26 10:57:55;;;;;;;2.08;0.70;;;;;;;;;;5063124;28;20041;-75
2024/01/26 11:00:21;;;;;;;0.45;0.45;;;;;;;;;;5063197;28;20033;-75
2024/01/26 11:02:47;;;;;;;0.60;0.60;;;;;;;;;;5060426;28;20067;-75
2024/01/26 11:05:13;;;;;;;1.20;0.73;;;;;;;;;;5054360;28;20045;-75
2024/01/26 11:07:39;;;;;;;0.73;0.73;;;;;;;;;;5059316;28;20040;-75
2024/01/26 11:10:10;;;;;;;0.55;0.50;;;;;;;;;;5062588;28;20103;-75
2024/01/26 11:12:35;;;;;;;1.30;0.80;;;;;;;;;;5053790;28;20080;-75
2024/01/26 11:15:12;;;;;;;0.50;0.50;;;;;;;;;;5056596;28;20052;-75
2024/01/26 11:17:54;;;;;;;0.75;0.75;;;;;;;;;;5058625;28;20040;-75
2024/01/26 11:20:22;;;;;;;0.50;0.50;;;;;;;;;;5058113;28;20090;-75
2024/01/26 11:23:03;;;;;;;0.40;0.40;;;;;;;;;;5062511;28;20041;-75
2024/01/26 11:25:37;;;;;;;1.10;0.50;;;;;;;;;;5061616;28;20102;-75
2024/01/26 11:28:06;;;;;;;1.00;1.00;;;;;;;;;;5053302;28;20043;-75
2024/01/26 11:30:32;;;;;;;0.45;0.45;;;;;;;;;;5057680;28;20268;-75
2024/01/26 11:32:58;;;;;;;0.70;0.70;;;;;;;;;;5057314;28;20037;-75
2024/01/26 11:35:24;;;;;;;1.42;0.77;;;;;;;;;;5046079;28;20043;-74
2024/01/26 11:37:55;;;;;;;3.28;0.60;;;;;;;;;;5059962;28;20037;-75
2024/01/26 11:40:23;;;;;;;0.70;0.70;;;;;;;;;;5061423;28;20093;-75
2024/01/26 11:42:49;;;;;;;0.57;0.57;;;;;;;;;;5068725;28;20048;-75
2024/01/26 11:45:36;;;;;;;0.60;0.60;;;;;;;;;;5058950;28;20033;-75
2024/01/26 11:48:05;;;;;;;0.60;0.60;;;;;;;;;;5059934;28;20112;-75
2024/01/26 11:50:30;;;;;;;0.70;0.70;;;;;;;;;;5061324;28;20035;-75
2024/01/26 11:52:56;;;;;;;0.50;0.50;;;;;;;;;;5054677;28;20032;-75
2024/01/26 11:55:21;;;;;;;0.85;0.70;;;;;;;;;;5057144;28;20068;-75
2024/01/26 11:57:46;;;;;;;0.60;0.60;;;;;;;;;;5051214;28;20045;-75
2024/01/26 12:00:12;;;;;;;0.60;0.60;;;;;;;;;;5056795;28;20033;-75
2024/01/26 12:02:38;;;;;;;0.55;0.55;;;;;;;;;;5055719;28;20057;-75
2024/01/26 12:05:03;;;;;;;0.88;0.77;;;;;;;;;;5060141;28;20559;-75
2024/01/26 12:07:29;;;;;;;0.60;0.60;;;;;;;;;;5062618;28;20025;-75
2024/01/26 12:09:54;;;;;;;1.42;0.70;;;;;;;;;;5060676;28;20036;-75
2024/01/26 12:12:20;;;;;;;1.75;0.80;;;;;;;;;;5057106;28;20066;-75
2024/01/26 12:14:45;;;;;;;0.60;0.60;;;;;;;;;;5063234;28;20033;-75
2024/01/26 12:17:10;;;;;;;0.70;0.70;;;;;;;;;;5057214;28;20408;-76
2024/01/26 12:19:38;;;;;;;0.50;0.50;;;;;;;;;;5065869;28;20036;-75
2024/01/26 12:22:06;;;;;;;0.82;0.52;;;;;;;;;;5061379;28;20044;-76
2024/01/26 12:24:35;;;;;;;0.70;0.70;;;;;;;;;;5052269;28;20040;-75
2024/01/26 12:27:02;;;;;;;1.33;0.60;;;;;;;;;;5062169;28;20032;-75
2024/01/26 12:29:31;;;;;;;1.13;0.90;;;;;;;;;;5065973;28;20339;-75
2024/01/26 12:32:04;;;;;;;0.38;0.38;;;;;;;;;;5064409;28;20025;-75
2024/01/26 12:34:30;;;;;;;4.13;0.60;;;;;;;;;;5053138;28;20651;-75
2024/01/26 12:37:01;;;;;;;0.80;0.80;;;;;;;;;;5060714;28;20040;-75
2024/01/26 12:39:28;;;;;;;0.73;0.70;;;;;;;;;;5056562;28;20492;-75
2024/01/26 12:41:54;;;;;;;1.00;0.88;;;;;;;;;;5058919;28;20032;-75
2024/01/26 12:44:27;;;;;;;1.23;1.00;;;;;;;;;;5052182;28;20103;-75
2024/01/26 12:46:53;;;;;;;1.98;0.60;;;;;;;;;;5054519;28;20560;-75
2024/01/26 12:49:18;;;;;;;0.60;0.60;;;;;;;;;;5058270;28;20036;-75
2024/01/26 12:51:43;;;;;;;1.15;0.60;;;;;;;;;;5052659;28;20033;-75
2024/01/26 12:54:10;;;;;;;0.60;0.60;;;;;;;;;;5050958;28;20460;-75
2024/01/26 12:56:36;;;;;;;1.20;0.60;;;;;;;;;;5053792;28;20047;-75
2024/01/26 12:59:02;;;;;;;0.60;0.60;;;;;;;;;;5052971;28;20148;-75
2024/01/26 13:01:28;;;;;;;0.80;0.80;;;;;;;;;;5051994;28;20568;-76
2024/01/26 13:03:53;;;;;;;1.23;0.90;;;;;;;;;;5052779;28;20048;-75
2024/01/26 13:06:18;;;;;;;0.70;0.70;;;;;;;;;;5068982;28;20497;-75
2024/01/26 13:08:43;;;;;;;0.95;0.80;;;;;;;;;;5052657;28;20034;-75
2024/01/26 13:11:10;;;;;;;2.25;1.02;;;;;;;;;;5062483;28;20066;-75
2024/01/26 13:13:38;;;;;;;0.82;0.82;;;;;;;;;;5061829;28;20909;-75
2024/01/26 13:16:04;;;;;;;1.55;0.82;;;;;;;;;;5064682;28;20036;-75
2024/01/26 13:18:29;;;;;;;3.03;0.77;;;;;;;;;;5063783;28;20036;-75
2024/01/26 13:20:55;;;;;;;5.20;1.42;;;;;;;;;;5056348;28;20167;-75
2024/01/26 13:23:20;;;;;;;0.70;0.70;;;;;;;;;;5061900;28;20036;-74
2024/01/26 13:25:47;;;;;;;0.85;0.70;;;;;;;;;;5053909;28;20493;-75
2024/01/26 13:28:12;;;;;;;0.80;0.70;;;;;;;;;;5054917;28;20040;-75
2024/01/26 13:30:38;;;;;;;1.15;0.80;;;;;;;;;;5057734;28;20404;-75
2024/01/26 13:33:06;;;;;;;1.52;0.90;;;;;;;;;;5053198;28;20140;-75
2024/01/26 13:35:31;;;;;;;0.70;0.70;;;;;;;;;;5049437;28;20041;-75
2024/01/26 13:37:56;;;;;;;1.20;0.95;;;;;;;;;;5058591;28;20449;-75
2024/01/26 13:40:22;;;;;;;0.65;0.65;;;;;;;;;;5048201;28;20036;-75
2024/01/26 13:42:47;;;;;;;0.65;0.65;;;;;;;;;;5054146;28;20049;-75
2024/01/26 13:45:13;;;;;;;0.80;0.80;;;;;;;;;;5057688;28;20118;-74
2024/01/26 13:47:38;;;;;;;0.80;0.80;;;;;;;;;;5054608;28;20052;-74
2024/01/26 13:50:06;;;;;;;0.68;0.68;;;;;;;;;;5055578;28;20040;-74
2024/01/26 13:52:31;;;;;;;1.55;0.77;;;;;;;;;;5053376;28;20128;-76
2024/01/26 13:54:57;;;;;;;0.90;0.90;;;;;;;;;;5057603;28;20115;-75
2024/01/26 13:57:22;;;;;;;0.70;0.70;;;;;;;;;;5057979;28;20083;-75
2024/01/26 13:59:47;;;;;;;1.20;0.90;;;;;;;;;;5066040;28;20431;-75
2024/01/26 14:02:13;;;;;;;1.17;1.00;;;;;;;;;;5060790;28;20040;-75
2024/01/26 14:04:39;;;;;;;1.38;0.80;;;;;;;;;;5053700;28;20026;-75
2024/01/26 14:07:05;;;;;;;0.82;0.82;;;;;;;;;;5060558;28;20040;-75
2024/01/26 14:09:30;;;;;;;0.90;0.90;;;;;;;;;;5057073;28;20500;-75
2024/01/26 14:11:56;;;;;;;0.90;0.77;;;;;;;;;;5055467;28;20085;-74
2024/01/26 14:14:22;;;;;;;1.70;0.90;;;;;;;;;;5053278;28;20096;-74
2024/01/26 14:16:49;;;;;;;1.25;1.00;;;;;;;;;;5044180;28;20040;-74
2024/01/26 14:19:14;;;;;;;0.90;0.90;;;;;;;;;;5048876;28;20108;-74
2024/01/26 14:21:40;;;;;;;1.23;0.95;;;;;;;;;;5051743;28;20123;-74
2024/01/26 14:24:06;;;;;;;0.80;0.73;;;;;;;;;;5044991;28;20052;-74
2024/01/26 14:26:32;;;;;;;1.13;1.02;;;;;;;;;;5050196;28;20075;-74
2024/01/26 14:28:57;;;;;;;1.25;1.05;;;;;;;;;;5046152;28;20072;-74
2024/01/26 14:31:26;;;;;;;1.02;1.02;;;;;;;;;;5050014;28;20555;-74
2024/01/26 14:33:52;;;;;;;2.40;1.13;;;;;;;;;;5052180;28;20497;-74
2024/01/26 14:36:20;;;;;;;0.80;0.80;;;;;;;;;;5069205;28;20035;-74